createdAt,value
2018-07-05T00:02:37.217Z,98425.91
2018-07-05T00:05:17.661Z,98429.30
2018-07-05T00:07:57.839Z,98428.94
2018-07-05T00:10:38.163Z,98430.75
2018-07-05T00:13:18.426Z,98420.35
2018-07-05T00:15:58.728Z,98421.58
2018-07-05T00:18:39.251Z,98419.88
2018-07-05T00:21:19.595Z,98425.10
2018-07-05T00:24:00.256Z,98424.43
2018-07-05T00:26:40.594Z,98413.26
2018-07-05T00:29:20.769Z,98410.88
2018-07-05T00:32:01.290Z,98412.62
2018-07-05T00:34:41.475Z,98417.77
2018-07-05T00:37:22.868Z,98418.64
2018-07-05T00:40:03.185Z,98424.88
2018-07-05T00:42:43.456Z,98425.53
2018-07-05T00:45:23.757Z,98424.72
2018-07-05T00:48:04.110Z,98420.73
2018-07-05T00:50:44.444Z,98416.41
2018-07-05T00:53:24.792Z,98415.93
2018-07-05T00:56:05.148Z,98418.38
2018-07-05T00:58:45.492Z,98409.04
2018-07-05T01:01:25.792Z,98417.34
2018-07-05T01:04:06.999Z,98410.13
2018-07-05T01:06:47.449Z,98405.95
2018-07-05T01:09:27.783Z,98408.48
2018-07-05T01:12:08.320Z,98406.19
2018-07-05T01:14:48.724Z,98410.91
2018-07-05T01:17:29.029Z,98405.14
2018-07-05T01:20:09.294Z,98396.34
2018-07-05T01:22:49.788Z,98405.89
2018-07-05T01:25:30.144Z,98398.16
2018-07-05T01:28:10.340Z,98396.06
2018-07-05T01:30:51.316Z,98398.28
2018-07-05T01:33:31.600Z,98407.21
2018-07-05T01:36:11.817Z,98401.06
2018-07-05T01:38:52.185Z,98402.73
2018-07-05T01:41:32.435Z,98409.54
2018-07-05T01:44:12.859Z,98414.19
2018-07-05T01:46:53.113Z,98417.80
2018-07-05T01:49:35.175Z,98417.86
2018-07-05T01:52:17.450Z,98417.14
2018-07-05T01:54:57.642Z,98413.38
2018-07-05T01:57:37.944Z,98414.77
2018-07-05T02:00:18.212Z,98415.69
2018-07-05T02:02:58.480Z,98423.53
2018-07-05T02:05:38.838Z,98412.52
2018-07-05T02:08:19.264Z,98416.63
2018-07-05T02:11:00.077Z,98412.58
2018-07-05T02:13:40.348Z,98412.94
2018-07-05T02:16:20.506Z,98416.47
2018-07-05T02:19:00.869Z,98412.68
2018-07-05T02:21:41.199Z,98414.29
2018-07-05T02:24:21.651Z,98409.98
2018-07-05T02:27:02.025Z,98411.38
2018-07-05T02:29:42.345Z,98409.55
2018-07-05T02:32:23.863Z,98399.89
2018-07-05T02:35:04.238Z,98396.70
2018-07-05T02:37:49.737Z,98399.94
2018-07-05T02:40:30.236Z,98400.17
2018-07-05T02:43:10.495Z,98402.87
2018-07-05T02:45:50.805Z,98397.23
2018-07-05T02:48:31.195Z,98395.68
2018-07-05T02:51:11.497Z,98402.53
2018-07-05T02:53:51.768Z,98398.91
2018-07-05T02:56:32.033Z,98393.29
2018-07-05T02:59:12.327Z,98391.36
2018-07-05T03:01:52.553Z,98389.47
2018-07-05T03:04:32.762Z,98396.17
2018-07-05T03:07:13.231Z,98394.59
2018-07-05T03:09:53.530Z,98398.11
2018-07-05T03:12:33.841Z,98408.45
2018-07-05T03:15:14.841Z,98407.11
2018-07-05T03:17:55.075Z,98417.36
2018-07-05T03:20:35.411Z,98414.70
2018-07-05T03:23:15.817Z,98409.59
2018-07-05T03:25:56.088Z,98410.66
2018-07-05T03:28:36.434Z,98414.75
2018-07-05T03:31:16.697Z,98413.59
2018-07-05T03:33:57.039Z,98411.96
2018-07-05T03:36:37.179Z,98407.86
2018-07-05T03:39:17.387Z,98412.90
2018-07-05T03:41:57.831Z,98404.78
2018-07-05T03:44:38.216Z,98404.21
2018-07-05T03:47:18.567Z,98403.39
2018-07-05T03:49:59.008Z,98398.48
2018-07-05T03:52:39.198Z,98397.62
2018-07-05T03:55:19.496Z,98400.87
2018-07-05T03:57:59.867Z,98399.47
2018-07-05T04:00:40.392Z,98402.64
2018-07-05T04:03:20.644Z,98406.04
2018-07-05T04:06:01.034Z,98398.64
2018-07-05T04:08:41.341Z,98401.49
2018-07-05T04:11:22.365Z,98401.33
2018-07-05T04:14:02.789Z,98403.58
2018-07-05T04:16:43.255Z,98396.95
2018-07-05T04:19:23.469Z,98395.72
2018-07-05T04:22:03.657Z,98396.98
2018-07-05T04:24:44.079Z,98399.25
2018-07-05T04:27:24.511Z,98394.80
2018-07-05T04:30:04.767Z,98390.02
2018-07-05T04:32:45.204Z,98392.31
2018-07-05T04:35:25.591Z,98391.33
2018-07-05T04:38:05.795Z,98393.30
2018-07-05T04:40:46.752Z,98392.21
2018-07-05T04:43:27.017Z,98388.51
2018-07-05T04:46:07.512Z,98390.41
2018-07-05T04:48:48.465Z,98392.11
2018-07-05T04:51:28.843Z,98392.97
2018-07-05T04:54:09.229Z,98395.28
2018-07-05T04:56:49.555Z,98394.46
2018-07-05T04:59:30.068Z,98400.43
2018-07-05T05:02:10.431Z,98403.66
2018-07-05T05:04:50.619Z,98404.52
2018-07-05T05:07:31.011Z,98398.33
2018-07-05T05:10:11.572Z,98388.89
2018-07-05T05:12:51.978Z,98389.07
2018-07-05T05:15:32.650Z,98392.74
2018-07-05T05:18:12.910Z,98393.16
2018-07-05T05:20:53.217Z,98392.94
2018-07-05T05:23:33.706Z,98392.24
2018-07-05T05:26:14.122Z,98383.06
2018-07-05T05:28:54.594Z,98382.12
2018-07-05T05:31:35.788Z,98375.20
2018-07-05T05:34:16.221Z,98366.34
2018-07-05T05:36:56.396Z,98365.81
2018-07-05T05:39:36.772Z,98368.11
2018-07-05T05:42:18.055Z,98361.77
2018-07-05T05:44:58.382Z,98362.12
2018-07-05T05:47:38.905Z,98366.31
2018-07-05T05:50:19.409Z,98365.13
2018-07-05T05:52:59.612Z,98363.22
2018-07-05T05:55:40.000Z,98361.97
2018-07-05T05:58:20.399Z,98366.20
2018-07-05T06:01:00.651Z,98366.51
2018-07-05T06:03:41.011Z,98364.53
2018-07-05T06:06:21.544Z,98357.84
2018-07-05T06:09:01.779Z,98362.56
2018-07-05T06:11:41.993Z,98364.33
2018-07-05T06:14:22.365Z,98365.52
2018-07-05T06:17:02.747Z,98366.68
2018-07-05T06:19:43.261Z,98359.73
2018-07-05T06:22:23.634Z,98367.70
2018-07-05T06:25:04.013Z,98358.63
2018-07-05T06:27:44.892Z,98356.39
2018-07-05T06:30:25.442Z,98347.67
2018-07-05T06:33:05.838Z,98336.87
2018-07-05T06:35:46.373Z,98326.89
2018-07-05T06:38:27.700Z,98330.89
2018-07-05T06:41:08.220Z,98332.81
2018-07-05T06:43:48.634Z,98339.39
2018-07-05T06:46:29.045Z,98339.95
2018-07-05T06:49:09.383Z,98338.14
2018-07-05T06:51:49.668Z,98340.70
2018-07-05T06:54:30.121Z,98338.75
2018-07-05T06:57:10.344Z,98340.50
2018-07-05T06:59:50.767Z,98333.98
2018-07-05T07:02:31.131Z,98331.77
2018-07-05T07:05:11.679Z,98337.31
2018-07-05T07:07:52.005Z,98333.13
2018-07-05T07:10:32.275Z,98326.74
2018-07-05T07:13:12.680Z,98326.18
2018-07-05T07:15:52.939Z,98324.02
2018-07-05T07:18:33.165Z,98315.29
2018-07-05T07:21:13.575Z,98320.48
2018-07-05T07:23:53.847Z,98319.52
2018-07-05T07:26:35.389Z,98324.81
2018-07-05T07:29:15.714Z,98317.87
2018-07-05T07:31:55.900Z,98320.09
2018-07-05T07:34:36.316Z,98313.98
2018-07-05T07:37:16.492Z,98313.56
2018-07-05T07:39:56.748Z,98311.20
2018-07-05T07:42:24.671Z,98316.57
2018-07-05T07:44:52.588Z,98308.50
2018-07-05T07:47:20.513Z,98306.30
2018-07-05T07:49:48.462Z,98304.81
2018-07-05T07:52:16.430Z,98307.24
2018-07-05T07:54:44.357Z,98299.34
2018-07-05T07:57:12.278Z,98295.73
2018-07-05T07:59:40.218Z,98293.77
2018-07-05T08:02:08.155Z,98297.38
2018-07-05T08:04:36.102Z,98297.27
2018-07-05T08:07:04.067Z,98288.05
2018-07-05T08:09:32.008Z,98288.55
2018-07-05T08:11:59.994Z,98284.72
2018-07-05T08:14:27.969Z,98274.72
2018-07-05T08:16:55.902Z,98273.31
2018-07-05T08:19:23.873Z,98270.04
2018-07-05T08:21:52.051Z,98269.30
2018-07-05T08:24:20.017Z,98269.60
2018-07-05T08:26:47.949Z,98261.95
2018-07-05T08:29:15.885Z,98261.19
2018-07-05T08:31:45.131Z,98260.81
2018-07-05T08:34:13.062Z,98254.44
2018-07-05T08:36:40.968Z,98260.61
2018-07-05T08:39:08.927Z,98259.05
2018-07-05T08:41:36.881Z,98260.61
2018-07-05T08:44:04.815Z,98260.24
2018-07-05T08:46:32.745Z,98261.44
2018-07-05T08:49:00.662Z,98255.50
2018-07-05T08:51:28.607Z,98251.97
2018-07-05T08:53:56.542Z,98250.15
2018-07-05T08:56:24.484Z,98250.80
2018-07-05T08:58:52.458Z,98248.69
2018-07-05T09:01:20.388Z,98253.15
2018-07-05T09:03:48.434Z,98252.02
2018-07-05T09:06:27.628Z,98251.34
2018-07-05T09:08:55.589Z,98244.30
2018-07-05T09:11:23.533Z,98241.92
2018-07-05T09:13:51.777Z,98246.70
2018-07-05T09:16:19.749Z,98237.00
2018-07-05T09:18:47.665Z,98239.81
2018-07-05T09:21:15.589Z,98235.59
2018-07-05T09:23:43.526Z,98229.97
2018-07-05T09:26:11.432Z,98232.23
2018-07-05T09:28:39.370Z,98228.13
2018-07-05T09:31:07.550Z,98232.06
2018-07-05T09:33:35.597Z,98229.92
2018-07-05T09:36:03.551Z,98231.64
2018-07-05T09:38:31.501Z,98227.33
2018-07-05T09:40:59.407Z,98227.30
2018-07-05T09:43:27.309Z,98230.69
2018-07-05T09:45:55.235Z,98219.58
2018-07-05T09:48:23.157Z,98224.53
2018-07-05T09:50:51.097Z,98219.17
2018-07-05T09:53:19.309Z,98216.03
2018-07-05T09:55:47.221Z,98219.59
2018-07-05T09:58:15.154Z,98216.87
2018-07-05T10:00:48.933Z,98212.22
2018-07-05T10:03:17.906Z,98209.28
2018-07-05T10:05:46.340Z,98203.99
2018-07-05T10:08:15.066Z,98205.18
2018-07-05T10:10:43.044Z,98199.47
2018-07-05T10:13:11.210Z,98188.45
2018-07-05T10:15:39.131Z,98186.63
2018-07-05T10:18:07.037Z,98183.09
2018-07-05T10:20:35.030Z,98179.08
2018-07-05T10:23:02.980Z,98170.02
2018-07-05T10:25:30.896Z,98168.62
2018-07-05T10:27:58.808Z,98171.94
2018-07-05T10:30:39.152Z,98159.34
2018-07-05T10:33:19.551Z,98158.52
2018-07-05T10:35:47.520Z,98158.95
2018-07-05T10:38:15.468Z,98150.27
2018-07-05T10:40:56.339Z,98142.83
2018-07-05T10:43:36.795Z,98139.50
2018-07-05T10:46:17.136Z,98135.77
2018-07-05T10:48:57.476Z,98128.95
2018-07-05T10:51:37.819Z,98131.52
2018-07-05T10:54:18.116Z,98131.41
2018-07-05T10:56:58.357Z,98130.65
2018-07-05T10:59:38.811Z,98128.45
2018-07-05T11:02:19.253Z,98131.52
2018-07-05T11:04:59.517Z,98128.56
2018-07-05T11:07:39.737Z,98125.33
2018-07-05T11:10:20.123Z,98128.44
2018-07-05T11:13:00.435Z,98130.92
2018-07-05T11:15:40.719Z,98124.45
2018-07-05T11:18:21.061Z,98124.73
2018-07-05T11:21:01.477Z,98114.98
2018-07-05T11:23:41.688Z,98113.94
2018-07-05T11:26:22.045Z,98105.55
2018-07-05T11:29:02.334Z,98103.74
2018-07-05T11:31:42.671Z,98101.04
2018-07-05T11:34:23.191Z,98093.18
2018-07-05T11:37:03.549Z,98084.82
2018-07-05T11:39:43.926Z,98085.20
2018-07-05T11:42:24.168Z,98080.30
2018-07-05T11:45:04.648Z,98079.87
2018-07-05T11:47:45.043Z,98070.75
2018-07-05T11:50:25.402Z,98073.41
2018-07-05T11:53:05.764Z,98065.28
2018-07-05T11:55:45.884Z,98069.59
2018-07-05T11:58:26.136Z,98067.94
2018-07-05T12:01:06.318Z,98065.83
2018-07-05T12:03:46.702Z,98065.99
2018-07-05T12:06:26.959Z,98064.08
2018-07-05T12:09:08.510Z,98065.87
2018-07-05T12:11:49.167Z,98061.56
2018-07-05T12:14:29.714Z,98067.66
2018-07-05T12:17:10.156Z,98063.84
2018-07-05T12:19:50.518Z,98056.66
2018-07-05T12:22:30.761Z,98054.11
2018-07-05T12:25:11.333Z,98053.50
2018-07-05T12:27:51.762Z,98045.86
2018-07-05T12:30:31.994Z,98039.17
2018-07-05T12:33:12.313Z,98037.35
2018-07-05T12:35:52.637Z,98034.34
2018-07-05T12:38:32.902Z,98031.83
2018-07-05T12:41:13.263Z,98027.98
2018-07-05T12:43:53.587Z,98024.02
2018-07-05T12:46:33.861Z,98011.77
2018-07-05T12:49:14.277Z,98011.94
2018-07-05T12:51:54.908Z,98013.89
2018-07-05T12:54:35.173Z,98010.34
2018-07-05T12:57:15.545Z,98007.70
2018-07-05T12:59:56.613Z,98003.05
2018-07-05T13:02:36.866Z,98003.02
2018-07-05T13:05:17.104Z,97999.89
2018-07-05T13:07:57.506Z,97998.63
2018-07-05T13:10:37.763Z,97991.84
2018-07-05T13:13:18.030Z,97985.92
2018-07-05T13:15:58.974Z,97982.94
2018-07-05T13:18:39.406Z,97979.93
2018-07-05T13:21:19.593Z,97984.65
2018-07-05T13:23:59.846Z,97978.94
2018-07-05T13:26:40.259Z,97983.72
2018-07-05T13:29:20.456Z,97982.75
2018-07-05T13:32:01.231Z,97977.07
2018-07-05T13:34:41.641Z,97978.15
2018-07-05T13:37:22.373Z,97975.11
2018-07-05T13:40:02.561Z,97976.85
2018-07-05T13:42:42.834Z,97974.25
2018-07-05T13:45:23.230Z,97980.04
2018-07-05T13:48:03.454Z,97974.74
2018-07-05T13:50:43.853Z,97971.64
2018-07-05T13:53:24.233Z,97970.89
2018-07-05T13:56:04.693Z,97966.80
2018-07-05T13:58:44.899Z,97960.62
2018-07-05T14:01:25.284Z,97954.20
2018-07-05T14:04:05.533Z,97955.22
2018-07-05T14:06:45.773Z,97948.58
2018-07-05T14:09:26.128Z,97944.23
2018-07-05T14:12:06.733Z,97949.56
2018-07-05T14:14:47.119Z,97949.52
2018-07-05T14:17:27.599Z,97944.23
2018-07-05T14:20:08.006Z,97949.98
2018-07-05T14:22:48.391Z,97947.62
2018-07-05T14:25:28.754Z,97946.45
2018-07-05T14:28:09.110Z,97941.28
2018-07-05T14:30:49.503Z,97939.30
2018-07-05T14:33:29.900Z,97941.14
2018-07-05T14:36:10.182Z,97934.63
2018-07-05T14:38:50.486Z,97934.55
2018-07-05T14:41:30.946Z,97927.19
2018-07-05T14:44:11.282Z,97932.81
2018-07-05T14:46:51.880Z,97925.94
2018-07-05T14:49:32.253Z,97930.06
2018-07-05T14:52:12.801Z,97919.48
2018-07-05T14:54:53.002Z,97917.63
2018-07-05T14:57:33.590Z,97916.45
2018-07-05T15:00:14.065Z,97910.07
2018-07-05T15:02:54.481Z,97908.55
2018-07-05T15:05:34.682Z,97906.03
2018-07-05T15:08:15.077Z,97908.47
2018-07-05T15:10:55.525Z,97905.54
2018-07-05T15:13:35.763Z,97896.77
2018-07-05T15:16:16.253Z,97886.39
2018-07-05T15:18:56.785Z,97887.47
2018-07-05T15:21:37.231Z,97884.41
2018-07-05T15:24:17.747Z,97880.16
2018-07-05T15:26:57.998Z,97880.33
2018-07-05T15:29:38.558Z,97874.34
2018-07-05T15:32:19.028Z,97876.11
2018-07-05T15:34:59.415Z,97869.30
2018-07-05T15:37:39.693Z,97862.78
2018-07-05T15:40:20.188Z,97855.58
2018-07-05T15:43:00.761Z,97855.41
2018-07-05T15:45:41.567Z,97848.16
2018-07-05T15:48:21.938Z,97845.27
2018-07-05T15:51:02.187Z,97838.18
2018-07-05T15:53:42.898Z,97843.50
2018-07-05T15:56:23.160Z,97834.66
2018-07-05T15:59:03.534Z,97835.79
2018-07-05T16:01:43.898Z,97839.58
2018-07-05T16:04:24.347Z,97836.56
2018-07-05T16:07:04.812Z,97835.87
2018-07-05T16:09:45.240Z,97840.00
2018-07-05T16:12:25.719Z,97843.33
2018-07-05T16:15:06.163Z,97847.59
2018-07-05T16:17:46.682Z,97847.96
2018-07-05T16:20:27.107Z,97863.11
2018-07-05T16:23:07.669Z,97860.06
2018-07-05T16:25:48.501Z,97867.69
2018-07-05T16:28:28.881Z,97867.60
2018-07-05T16:31:09.284Z,97867.83
2018-07-05T16:33:49.777Z,97867.02
2018-07-05T16:36:30.305Z,97867.80
2018-07-05T16:39:11.340Z,97866.06
2018-07-05T16:41:52.101Z,97863.88
2018-07-05T16:44:32.450Z,97867.27
2018-07-05T16:47:13.778Z,97868.84
2018-07-05T16:49:54.545Z,97872.77
2018-07-05T16:52:34.893Z,97868.63
2018-07-05T16:55:15.340Z,97868.27
2018-07-05T16:57:56.476Z,97870.64
2018-07-05T17:00:36.794Z,97874.15
2018-07-05T17:03:17.070Z,97875.53
2018-07-05T17:05:57.396Z,97885.99
2018-07-05T17:08:37.750Z,97893.50
2018-07-05T17:11:18.082Z,97895.08
2018-07-05T17:13:58.455Z,97899.03
2018-07-05T17:16:38.754Z,97906.49
2018-07-05T17:19:19.318Z,97907.28
2018-07-05T17:21:59.766Z,97906.13
2018-07-05T17:24:40.236Z,97918.69
2018-07-05T17:27:20.685Z,97925.95
2018-07-05T17:30:01.116Z,97926.09
2018-07-05T17:32:41.610Z,97932.70
2018-07-05T17:35:22.420Z,97927.69
2018-07-05T17:38:02.749Z,97941.82
2018-07-05T17:40:44.018Z,97943.58
2018-07-05T17:43:24.493Z,97937.27
2018-07-05T17:46:04.925Z,97934.31
2018-07-05T17:48:45.543Z,97944.27
2018-07-05T17:51:25.917Z,97942.27
2018-07-05T17:54:06.187Z,97937.30
2018-07-05T17:56:46.445Z,97939.81
2018-07-05T17:59:26.727Z,97929.66
2018-07-05T18:02:07.145Z,97929.77
2018-07-05T18:04:47.777Z,97933.59
2018-07-05T18:07:28.487Z,97928.39
2018-07-05T18:10:08.943Z,97932.03
2018-07-05T18:12:49.383Z,97930.14
2018-07-05T18:15:30.155Z,97922.45
2018-07-05T18:18:10.473Z,97924.12
2018-07-05T18:20:51.090Z,97921.68
2018-07-05T18:23:31.541Z,97923.93
2018-07-05T18:26:11.953Z,97922.63
2018-07-05T18:28:52.320Z,97934.73
2018-07-05T18:31:32.642Z,97939.38
2018-07-05T18:34:13.036Z,97948.29
2018-07-05T18:36:56.207Z,97963.94
2018-07-05T18:39:36.720Z,97975.30
2018-07-05T18:42:17.013Z,97984.52
2018-07-05T18:44:57.344Z,97973.70
2018-07-05T18:47:37.680Z,97978.08
2018-07-05T18:50:18.053Z,97984.34
2018-07-05T18:52:58.621Z,97992.41
2018-07-05T18:55:38.869Z,98002.94
2018-07-05T18:58:19.214Z,98005.97
2018-07-05T19:00:59.617Z,98007.30
2018-07-05T19:03:40.148Z,98010.71
2018-07-05T19:06:20.360Z,98021.69
2018-07-05T19:09:01.475Z,98039.54
2018-07-05T19:11:42.012Z,98025.11
2018-07-05T19:14:22.509Z,98034.07
2018-07-05T19:17:02.990Z,98043.02
2018-07-05T19:19:43.431Z,98063.91
2018-07-05T19:22:23.860Z,98096.16
2018-07-05T19:25:04.350Z,98113.54
2018-07-05T19:27:45.194Z,98144.69
2018-07-05T19:30:25.690Z,98138.38
2018-07-05T19:33:06.238Z,98154.64
2018-07-05T19:35:46.700Z,98170.77
2018-07-05T19:38:27.073Z,98171.37
2018-07-05T19:41:07.733Z,98178.00
2018-07-05T19:43:48.299Z,98185.92
2018-07-05T19:46:28.788Z,98194.91
2018-07-05T19:49:09.841Z,98201.64
2018-07-05T19:51:50.229Z,98211.81
2018-07-05T19:54:30.519Z,98219.27
2018-07-05T19:57:10.841Z,98223.91
2018-07-05T19:59:51.362Z,98224.58
2018-07-05T20:02:31.845Z,98230.29
2018-07-05T20:05:12.361Z,98231.89
2018-07-05T20:07:52.761Z,98241.09
2018-07-05T20:10:33.233Z,98245.58
2018-07-05T20:13:13.722Z,98248.52
2018-07-05T20:15:54.071Z,98257.35
2018-07-05T20:18:34.480Z,98253.25
2018-07-05T20:21:15.866Z,98266.14
2018-07-05T20:23:56.356Z,98277.34
2018-07-05T20:26:36.864Z,98292.03
2018-07-05T20:29:17.246Z,98294.47
2018-07-05T20:31:57.708Z,98298.59
2018-07-05T20:34:38.112Z,98312.14
2018-07-05T20:37:18.432Z,98312.69
2018-07-05T20:39:58.942Z,98314.16
2018-07-05T20:42:39.406Z,98324.78
2018-07-05T20:45:19.862Z,98327.24
2018-07-05T20:48:00.094Z,98340.08
2018-07-05T20:50:40.670Z,98339.98
2018-07-05T20:53:21.342Z,98353.52
2018-07-05T20:56:01.838Z,98358.26
2018-07-05T20:58:42.078Z,98362.36
2018-07-05T21:01:22.632Z,98371.54
2018-07-05T21:04:03.037Z,98365.58
2018-07-05T21:06:43.595Z,98367.26
2018-07-05T21:09:24.073Z,98369.61
2018-07-05T21:12:04.328Z,98372.97
2018-07-05T21:14:44.528Z,98381.02
2018-07-05T21:17:25.019Z,98377.42
2018-07-05T21:20:05.224Z,98377.16
2018-07-05T21:22:46.077Z,98386.81
2018-07-05T21:25:26.344Z,98387.94
2018-07-05T21:28:06.607Z,98390.55
2018-07-05T21:30:46.867Z,98397.23
2018-07-05T21:33:27.563Z,98395.95
2018-07-05T21:36:07.905Z,98394.57
2018-07-05T21:38:48.203Z,98386.19
2018-07-05T21:41:28.395Z,98393.06
2018-07-05T21:44:08.801Z,98392.89
2018-07-05T21:46:49.458Z,98392.23
2018-07-05T21:49:29.841Z,98383.08
2018-07-05T21:52:10.142Z,98388.68
2018-07-05T21:54:50.666Z,98387.38
2018-07-05T21:57:31.170Z,98389.47
2018-07-05T22:00:11.596Z,98399.94
2018-07-05T22:02:52.481Z,98394.05
2018-07-05T22:05:33.521Z,98401.30
2018-07-05T22:08:14.602Z,98399.94
2018-07-05T22:10:54.846Z,98397.93
2018-07-05T22:13:35.295Z,98402.14
2018-07-05T22:16:15.868Z,98397.82
2018-07-05T22:19:01.618Z,98413.45
2018-07-05T22:21:48.059Z,98402.06
2018-07-05T22:24:33.647Z,98411.10
2018-07-05T22:27:20.266Z,98414.73
2018-07-05T22:30:05.856Z,98414.06
2018-07-05T22:32:46.443Z,98413.70
2018-07-05T22:35:34.094Z,98413.63
2018-07-05T22:38:14.408Z,98422.38
2018-07-05T22:40:54.746Z,98415.92
2018-07-05T22:43:35.170Z,98416.00
2018-07-05T22:46:16.498Z,98420.54
2018-07-05T22:48:57.938Z,98422.92
2018-07-05T22:51:39.486Z,98423.58
2018-07-05T22:54:19.819Z,98425.55
2018-07-05T22:57:00.243Z,98433.38
2018-07-05T22:59:40.682Z,98431.11
2018-07-05T23:02:20.965Z,98431.37
2018-07-05T23:05:01.374Z,98428.18
2018-07-05T23:07:41.723Z,98426.50
2018-07-05T23:10:22.049Z,98428.88
2018-07-05T23:13:02.544Z,98421.89
2018-07-05T23:15:42.986Z,98425.84
2018-07-05T23:18:23.406Z,98431.87
2018-07-05T23:21:03.848Z,98422.14
2018-07-05T23:23:44.143Z,98423.27
2018-07-05T23:26:24.492Z,98420.31
2018-07-05T23:29:04.876Z,98416.25
2018-07-05T23:31:45.376Z,98418.34
2018-07-05T23:34:25.652Z,98416.11
2018-07-05T23:37:06.082Z,98416.80
2018-07-05T23:39:46.384Z,98409.14
2018-07-05T23:42:26.784Z,98418.11
2018-07-05T23:45:07.274Z,98418.34
2018-07-05T23:47:47.607Z,98415.91
2018-07-05T23:50:27.948Z,98417.48
2018-07-05T23:53:08.380Z,98410.98
2018-07-05T23:55:48.541Z,98407.40
2018-07-05T23:58:28.927Z,98413.43
